Time;durP1;ratioP1;P1;durP2;ratioP2;P2;SDS_P1;SDS_P2;PMS_P1;PMS_P2;Temp;Humidity;BMP_temperature;BMP_pressure;BME280_temperature;BME280_humidity;BME280_pressure;Samples;Min_cycle;Max_cycle;Signal;HPM_P1;HPM_P2
2021/06/28 18:41:38;;;;;;;7.30;5.40;;;24.20;93.90;;;;;;5191419;27;20361;-91
2021/06/28 18:44:04;;;;;;;6.18;5.57;;;23.80;94.50;;;;;;5156557;27;20480;-96
2021/06/28 18:46:30;;;;;;;6.43;5.60;;;23.80;94.80;;;;;;5157013;27;20486;-90
2021/06/28 18:48:57;;;;;;;8.02;5.93;;;23.80;95.10;;;;;;5157645;27;20019;-93
2021/06/28 18:51:23;;;;;;;8.18;5.60;;;23.80;95.30;;;;;;5156837;27;20117;-85
2021/06/28 18:53:50;;;;;;;6.80;5.72;;;23.80;95.30;;;;;;5155400;27;20026;-87
2021/06/28 18:56:28;;;;;;;9.95;6.53;;;23.80;95.40;;;;;;5155076;27;20114;-86
2021/06/28 18:58:58;;;;;;;11.38;6.03;;;23.90;95.50;;;;;;5173220;27;20494;-82
2021/06/28 19:01:24;;;;;;;10.70;6.35;;;23.80;95.60;;;;;;5173150;27;20019;-82
2021/06/28 19:03:49;;;;;;;8.50;5.90;;;23.80;95.70;;;;;;5154482;27;20460;-82
2021/06/28 19:06:15;;;;;;;6.75;5.85;;;23.70;95.70;;;;;;5173136;27;20071;-82
2021/06/28 19:08:41;;;;;;;7.70;5.63;;;23.60;95.90;;;;;;5154389;27;20019;-82
2021/06/28 19:11:09;;;;;;;6.43;5.35;;;23.50;96.00;;;;;;5154441;27;20388;-82
2021/06/28 19:13:38;;;;;;;7.97;5.60;;;23.50;96.00;;;;;;5173045;27;20019;-83
2021/06/28 19:16:05;;;;;;;5.80;5.20;;;23.40;96.10;;;;;;5172879;27;20085;-82
2021/06/28 19:18:31;;;;;;;6.93;5.05;;;23.40;96.20;;;;;;5172679;27;20026;-83
2021/06/28 19:20:57;;;;;;;6.18;4.90;;;23.30;96.40;;;;;;5153992;27;20022;-82
2021/06/28 19:23:22;;;;;;;8.77;5.60;;;23.30;96.40;;;;;;5172714;27;20053;-83
2021/06/28 19:25:48;;;;;;;5.57;4.90;;;23.30;96.40;;;;;;5172970;27;20023;-82
2021/06/28 19:28:15;;;;;;;6.00;4.90;;;23.20;96.40;;;;;;5172707;27;20022;-82
2021/06/28 19:30:41;;;;;;;5.63;4.95;;;23.20;96.40;;;;;;5172758;27;20115;-82
2021/06/28 19:33:08;;;;;;;5.70;5.07;;;23.20;96.40;;;;;;5172722;27;20022;-81
2021/06/28 19:35:34;;;;;;;5.88;5.28;;;23.20;96.40;;;;;;5153945;27;20113;-82
2021/06/28 19:38:00;;;;;;;7.72;4.85;;;23.10;96.30;;;;;;5172550;27;20105;-82
2021/06/28 19:40:26;;;;;;;5.47;4.88;;;23.20;96.40;;;;;;5172123;27;20047;-82
2021/06/28 19:42:52;;;;;;;5.90;4.93;;;23.10;96.30;;;;;;5153658;27;20027;-82
2021/06/28 19:45:18;;;;;;;5.85;4.93;;;23.00;96.40;;;;;;5172530;27;20350;-82
2021/06/28 19:47:44;;;;;;;5.82;5.28;;;23.00;96.40;;;;;;5172369;27;20043;-82
2021/06/28 19:50:11;;;;;;;6.13;5.53;;;23.00;96.40;;;;;;5172262;27;20042;-82
2021/06/28 19:53:02;;;;;;;5.85;5.25;;;22.90;96.20;;;;;;5158394;27;20015;-82
2021/06/28 19:55:28;;;;;;;6.03;5.43;;;22.90;96.20;;;;;;5139359;27;20106;-82
2021/06/28 19:57:54;;;;;;;6.60;4.75;;;22.90;96.30;;;;;;5157942;27;20026;-83
2021/06/28 20:00:21;;;;;;;5.85;5.10;;;22.80;96.20;;;;;;5157922;27;20466;-82
2021/06/28 20:02:47;;;;;;;5.22;4.72;;;22.80;96.30;;;;;;5157912;27;20049;-81
2021/06/28 20:05:14;;;;;;;6.55;5.13;;;22.80;96.30;;;;;;5157738;27;20023;-81
2021/06/28 20:07:39;;;;;;;7.10;5.05;;;22.70;96.30;;;;;;5139245;27;20027;-81
2021/06/28 20:10:06;;;;;;;6.22;5.60;;;22.70;96.40;;;;;;5137124;27;20091;-81
2021/06/28 20:12:32;;;;;;;7.63;5.32;;;22.60;96.40;;;;;;5123243;27;20022;-80
2021/06/28 20:14:58;;;;;;;5.97;5.38;;;22.60;96.40;;;;;;5157987;27;20026;-80
2021/06/28 20:17:24;;;;;;;5.95;5.35;;;22.50;96.40;;;;;;5139250;27;20029;-80
2021/06/28 20:19:49;;;;;;;7.88;5.75;;;22.50;96.50;;;;;;5157438;27;20026;-79
